Terminal Aerodrome Forecast
Issued by NWS

Home | Current Version | Previous Version | Text Only | Print | Product List | Glossary On
Versions: 1 2 3 4 5 6 7 8 9 10 11 12 13 14 15 16
483
FTUS43 KFGF 222332
TAFBJI
TAF
KBJI 222332Z 2300/2324 30012KT P6SM BKN050
     FM230600 30007KT P6SM FEW025
     FM231100 32006KT P6SM BKN015
     FM231500 35006KT P6SM BKN010
     FM231700 01007KT P6SM SCT020
     FM232300 03005KT P6SM FEW120=

USA.gov is the U.S. government's official web portal to all federal, state and local government web resources and services.